Dalton, GA

8:16 PM EST on February 28, 2015 (GMT -0500)
Downtown Dalton, GA | Change Station
CLOSE
Current Station
Personal Weather Station
Location: Dalton, GA
Elevation: 753 ft
Nearby Weather Stations

Elev 753 ft 34.76 °N, 84.96 °W | Updated 10 seconds ago

Partly Cloudy
Partly Cloudy
48.6 °F
Feels Like 47 °F
N
5.0
Wind Variable Wind from SSE
Gusts 8.0 mph

Today
High -- | Low -- °F
--% Chance of Precip.
Yesterday
High -- | Low -- °F
Precip. -- in
7:10 AM 6:34 PM
Waxing Gibbous, 81% visible
Pressure 30.49 in
Visibility 10.0 miles
Clouds Clear
Windchill 47 °F
Dew Point 30 °F
Humidity 48%
Rainfall 0.00 in
Snow Depth Not available.
UV 0 out of 12
Pollen 3.30 out of 12
Air Quality Not available.
Flu Activity Not available.
METAR KDNN 010055Z AUTO 00000KT 10SM CLR 07/M01 A3049 RMK AO2

More Conditions Fewer Conditions

Pressure 30.49 in
Visibility 10.0 miles
Clouds Clear
Windchill 47 °F
Dew Point 30 °F
Humidity 48%
Rainfall 0.00 in
Snow Depth Not available.
UV 0 out of 12
Pollen 3.30 out of 12
Air Quality Not available.
Flu Activity Not available.
METAR KDNN 010055Z AUTO 00000KT 10SM CLR 07/M01 A3049 RMK AO2

More Conditions Fewer Conditions

10-Day Weather Forecast

Almanac

Astronomy

Feb. 28, 2015 Rise Set
Actual Time
Civil Twilight
Nautical Twilight
Astronomical Twilight
Moon
Length of Visible Light
Length of Day
Tomorrow will be .
, % of the Moon is Illuminated

Today's Extremes

State Highs State Lows

Community

WunderPhotos

Upload Photos

1,801,220 photos uploaded!

WunderBlogs® & News

Nearby

Air Quality

  Air Quality AQ Index Pollutant
Not available.

Snow Depth

Station Depth Elevation

Earthquake Activity

City Distance Mag. Time & Date
Minimum magnitude displayed is 2.5.

Coastal Water Temperatures

Place Temperature

Nearby Weather Stations